Time;durP1;ratioP1;P1;durP2;ratioP2;P2;SDS_P1;SDS_P2;PMS_P1;PMS_P2;Temp;Humidity;BMP_temperature;BMP_pressure;BME280_temperature;BME280_humidity;BME280_pressure;Samples;Min_cycle;Max_cycle;Signal;HPM_P1;HPM_P2
2022/02/10 00:35:14;;;;;;;43.38;22.30;;;;;;;8.36;81.46;102162.34;5045083;28;20363;-66
2022/02/10 00:37:56;;;;;;;39.33;21.42;;;;;;;8.36;81.53;102163.19;5044876;28;20033;-66
2022/02/10 00:40:21;;;;;;;38.55;21.15;;;;;;;8.40;81.02;102169.34;5044704;28;20499;-66
2022/02/10 00:42:47;;;;;;;37.13;20.48;;;;;;;8.34;81.48;102150.06;5043630;28;20021;-65
2022/02/10 00:45:13;;;;;;;36.03;20.50;;;;;;;8.27;81.54;102153.59;5049022;28;20467;-65
2022/02/10 00:47:52;;;;;;;42.55;20.75;;;;;;;8.18;82.28;102151.00;5049312;28;20021;-66
2022/02/10 00:50:18;;;;;;;36.42;22.55;;;;;;;8.24;81.78;102150.13;5031112;28;20776;-67
2022/02/10 00:52:44;;;;;;;43.17;22.63;;;;;;;8.19;82.26;102147.50;5030842;28;20483;-66
2022/02/10 00:55:14;;;;;;;38.10;21.63;;;;;;;8.22;82.32;102152.75;5047527;28;20052;-66
2022/02/10 00:57:39;;;;;;;;;;;;;;;8.21;81.90;102148.38;5048366;28;20580;-64
2022/02/10 01:11:16;;;;;;;50.35;25.02;;;;;;;8.17;82.19;102128.25;5047519;28;20035;-66
2022/02/10 01:30:17;;;;;;;42.05;22.88;;;;;;;7.98;82.35;102104.69;5029146;28;20398;-66
2022/02/10 01:32:45;;;;;;;36.40;21.35;;;;;;;7.98;82.57;102091.56;5029088;28;20021;-65
2022/02/10 01:35:14;;;;;;;41.38;22.55;;;;;;;7.96;82.31;102101.19;5028949;28;20088;-65
2022/02/10 01:37:40;;;;;;;40.65;22.50;;;;;;;7.92;82.44;102095.06;5048427;28;20024;-65
2022/02/10 02:04:44;;;;;;;41.85;22.60;;;;;;;7.68;84.04;102051.41;5047778;28;20056;-66
2022/02/10 02:07:10;;;;;;;40.88;20.63;;;;;;;7.80;83.46;102051.34;5030060;28;20051;-65
2022/02/10 02:09:36;;;;;;;40.72;22.95;;;;;;;7.79;83.21;102048.72;5028911;28;20049;-66
2022/02/10 02:12:05;;;;;;;37.83;20.88;;;;;;;7.70;83.52;102042.63;5047639;28;20479;-64
2022/02/10 02:14:31;;;;;;;39.15;20.95;;;;;;;7.77;83.25;102040.00;5047739;28;20021;-65
2022/02/10 02:17:00;;;;;;;43.90;23.00;;;;;;;7.81;82.91;102042.63;5029788;28;20086;-66
2022/02/10 02:19:25;;;;;;;39.83;22.17;;;;;;;7.79;82.90;102041.75;5029199;28;20037;-65
2022/02/10 02:21:51;;;;;;;41.58;21.15;;;;;;;7.94;82.50;102046.06;5047318;28;20040;-66
2022/02/10 02:24:22;;;;;;;40.28;22.10;;;;;;;8.00;82.11;102039.06;5027729;28;20053;-64
2022/02/10 02:26:49;;;;;;;42.80;23.23;;;;;;;8.01;82.30;102040.81;5046953;28;20024;-67
2022/02/10 02:29:19;;;;;;;43.67;21.63;;;;;;;8.01;82.13;102036.41;5047010;28;20033;-64
2022/02/10 02:31:51;;;;;;;48.50;22.00;;;;;;;8.00;82.22;102037.28;5044375;28;20378;-58
2022/02/10 03:06:39;;;;;;;56.20;24.83;;;;;;;7.62;85.55;101985.81;5046761;28;20033;-66
2022/02/10 03:09:19;;;;;;;49.40;23.27;;;;;;;7.57;85.83;101993.69;5045263;28;20060;-67
2022/02/10 03:11:44;;;;;;;59.25;25.48;;;;;;;7.58;86.02;101993.69;5047079;28;20032;-62
2022/02/10 03:14:18;;;;;;;67.88;26.83;;;;;;;7.61;86.09;101984.94;5045744;28;20078;-65
2022/02/10 04:00:34;;;;;;;62.25;24.25;;;;;;;7.57;87.05;101973.59;5044921;28;20048;-66
2022/02/10 04:08:08;;;;;;;68.10;26.92;;;;;;;7.59;87.23;101976.22;5043817;28;20511;-64
2022/02/10 04:11:16;;;;;;;62.42;25.38;;;;;;;7.55;87.29;101974.47;5043256;28;20035;-64
2022/02/10 04:13:53;;;;;;;73.63;28.73;;;;;;;7.66;86.70;101980.56;5043258;28;20124;-65
2022/02/10 04:16:26;;;;;;;69.55;25.65;;;;;;;7.66;86.68;101983.19;5043979;28;20104;-64
2022/02/10 04:21:49;;;;;;;79.82;29.63;;;;;;;7.57;87.34;101984.09;5049301;28;20383;-64
2022/02/10 04:25:11;;;;;;;80.30;31.83;;;;;;;7.63;87.28;101980.56;5032871;28;20107;-56
2022/02/10 04:27:24;;;;;;;77.65;28.30;;;;;;;7.58;87.03;101983.22;5045452;28;20058;-65
2022/02/10 04:38:37;;;;;;;74.65;27.58;;;;;;;7.54;87.46;101983.22;5047969;28;20083;-66
2022/02/10 05:08:08;;;;;;;17.25;9.38;;;;;;;7.27;86.26;101977.16;5047225;28;20040;-66
2022/02/10 05:16:18;;;;;;;21.27;11.65;;;;;;;7.05;86.28;101980.66;5045931;28;20043;-66
2022/02/10 05:19:08;;;;;;;18.77;10.15;;;;;;;7.06;86.49;101977.19;5047178;28;20036;-65
2022/02/10 05:24:29;;;;;;;22.05;11.90;;;;;;;6.95;86.49;101974.56;5047409;28;20175;-64
2022/02/10 05:35:30;;;;;;;18.92;10.20;;;;;;;6.92;86.78;101978.94;5047026;28;20040;-65
2022/02/10 05:38:04;;;;;;;16.17;10.07;;;;;;;6.67;87.22;101979.81;5031507;28;20447;-65
2022/02/10 06:55:15;;;;;;;8.45;5.57;;;;;;;6.45;86.56;102021.66;5045021;28;20032;-63
2022/02/10 07:48:43;;;;;;;10.27;6.18;;;;;;;6.95;85.31;102052.31;5042421;28;20088;-61
2022/02/10 07:54:20;;;;;;;9.50;5.93;;;;;;;6.98;84.87;102059.31;5042273;28;20451;-61
2022/02/10 08:04:49;;;;;;;11.52;4.80;;;;;;;7.03;83.53;102082.03;5041644;28;20047;-62
2022/02/10 08:26:05;;;;;;;9.13;3.78;;;;;;;7.12;82.67;102094.25;5035578;28;20124;-61
2022/02/10 08:52:07;;;;;;;10.73;2.60;;;;;;;8.06;77.04;102121.28;5003226;28;20042;-63
2022/02/10 09:04:48;;;;;;;6.97;2.40;;;;;;;7.84;76.10;102123.97;5010717;28;20049;-63
2022/02/10 09:10:05;;;;;;;4.35;1.70;;;;;;;8.13;74.13;102129.16;5024235;28;20087;-60
2022/02/10 09:13:05;;;;;;;6.03;1.92;;;;;;;8.17;73.92;102142.25;5026294;28;20394;-61
2022/02/10 09:50:27;;;;;;;6.18;1.98;;;;;;;9.28;69.62;102154.88;5007641;28;20052;-61
2022/02/10 09:56:56;;;;;;;7.22;1.92;;;;;;;9.43;69.14;102153.00;5013185;28;20685;-63
2022/02/10 09:59:49;;;;;;;5.97;2.53;;;;;;;9.43;68.57;102159.16;5016522;28;20092;-63
2022/02/10 10:02:26;;;;;;;6.38;1.98;;;;;;;9.45;66.57;102159.16;5026065;28;20547;-61
2022/02/10 10:05:43;;;;;;;9.07;2.00;;;;;;;9.40;68.01;102163.56;5013310;28;20044;-63
2022/02/10 10:24:14;;;;;;;5.88;1.73;;;;;;;8.78;67.83;102189.34;4993612;28;20461;-62
2022/02/10 10:52:05;;;;;;;10.68;2.45;;;;;;;8.97;67.08;102186.59;5013886;28;20063;-65
2022/02/10 10:57:07;;;;;;;13.30;2.60;;;;;;;8.95;66.81;102191.03;5014124;28;20291;-64
2022/02/10 11:42:19;;;;;;;7.95;1.70;;;;;;;9.22;58.89;102195.22;5001870;28;20041;-64
2022/02/10 11:45:35;;;;;;;6.22;1.85;;;;;;;9.26;58.54;102195.22;5002174;28;20045;-64
2022/02/10 12:31:45;;;;;;;6.65;1.65;;;;;;;8.59;62.92;102197.31;4999715;28;20095;-62
2022/02/10 12:37:02;;;;;;;7.32;1.70;;;;;;;8.77;62.94;102194.63;5018294;28;20043;-63
2022/02/10 13:23:40;;;;;;;7.30;1.95;;;;;;;8.34;60.97;102192.09;5012337;28;20368;-67
2022/02/10 13:27:13;;;;;;;12.43;2.00;;;;;;;8.18;60.67;102190.38;5024194;28;20029;-68
2022/02/10 13:32:55;;;;;;;10.43;2.13;;;;;;;8.30;60.03;102171.97;5022467;28;20043;-68
2022/02/10 14:13:30;;;;;;;10.43;1.65;;;;;;;8.89;57.46;102162.13;5014204;28;20110;-72
2022/02/10 14:18:27;;;;;;;11.35;2.50;;;;;;;9.09;57.80;102170.78;5016219;28;20032;-72
2022/02/10 14:21:13;;;;;;;4.68;1.40;;;;;;;9.15;57.95;102166.38;5017439;28;20044;-66
2022/02/10 14:26:26;;;;;;;8.20;1.70;;;;;;;9.10;59.19;102171.66;5045783;28;20595;-69
2022/02/10 14:28:51;;;;;;;7.90;1.80;;;;;;;9.15;59.16;102179.53;5045248;28;20025;-68
2022/02/10 14:31:17;;;;;;;8.93;1.83;;;;;;;9.03;60.34;102183.94;5047465;28;20037;-69
2022/02/10 14:33:44;;;;;;;8.93;2.08;;;;;;;9.02;60.21;102187.47;5028027;28;20033;-69
2022/02/10 14:36:16;;;;;;;6.20;1.45;;;;;;;8.93;59.88;102185.78;5035994;28;20357;-70
2022/02/10 14:39:50;;;;;;;7.63;1.30;;;;;;;8.88;59.15;102194.56;5076217;28;20387;-67
2022/02/10 15:16:04;;;;;;;7.70;2.20;;;;;;;7.38;62.01;102202.66;5058256;28;20036;-74
2022/02/10 15:50:44;;;;;;;12.13;2.00;;;;;;;6.97;66.54;102199.06;5047643;28;20086;-71
2022/02/10 16:17:07;;;;;;;6.45;1.80;;;;;;;6.56;62.99;102191.03;5039941;28;20029;-71
2022/02/10 16:19:33;;;;;;;14.60;2.33;;;;;;;6.54;63.57;102188.41;5027703;28;20113;-71
2022/02/10 16:22:06;;;;;;;5.82;1.42;;;;;;;6.52;63.90;102199.75;5026602;28;20024;-69
2022/02/10 16:24:35;;;;;;;11.45;2.05;;;;;;;6.48;63.90;102188.41;5027663;28;20026;-63
2022/02/10 16:27:12;;;;;;;10.27;1.83;;;;;;;6.47;64.46;102197.09;5033765;28;20471;-75
2022/02/10 16:29:38;;;;;;;5.75;1.60;;;;;;;6.42;64.96;102194.47;5054883;28;20029;-70
2022/02/10 16:32:04;;;;;;;10.68;1.83;;;;;;;6.36;65.57;102190.94;5055146;28;20279;-68
2022/02/10 16:34:29;;;;;;;10.38;2.50;;;;;;;6.31;65.65;102191.81;5055302;28;20111;-65
2022/02/10 16:36:56;;;;;;;12.10;2.08;;;;;;;6.28;65.93;102190.91;5056459;28;20028;-72
2022/02/10 16:39:21;;;;;;;10.82;2.25;;;;;;;6.25;65.24;102183.03;5056918;28;20044;-68
2022/02/10 16:41:47;;;;;;;12.70;2.70;;;;;;;6.17;65.39;102189.09;5055501;28;20460;-72
2022/02/10 16:44:13;;;;;;;7.93;1.55;;;;;;;6.18;65.23;102189.97;5052481;28;20217;-65
2022/02/10 16:46:38;;;;;;;6.60;1.60;;;;;;;6.17;65.14;102177.78;5047515;28;20043;-73
2022/02/10 16:49:04;;;;;;;8.05;2.53;;;;;;;6.12;65.52;102184.69;5041441;28;20725;-68
2022/02/10 16:51:30;;;;;;;12.80;2.25;;;;;;;6.04;65.91;102185.53;5042386;28;20021;-69
2022/02/10 16:54:08;;;;;;;8.18;2.60;;;;;;;6.01;65.65;102195.94;5048367;28;20037;-75
2022/02/10 16:56:51;;;;;;;12.10;3.58;;;;;;;6.00;65.66;102201.16;5046123;28;20036;-64
2022/02/10 17:02:18;;;;;;;11.30;2.67;;;;;;;5.94;66.08;102189.75;5024386;28;20032;-68
2022/02/10 17:25:56;;;;;;;8.18;2.85;;;;;;;5.78;67.61;102207.09;5041143;28;20041;-68
2022/02/10 17:28:21;;;;;;;12.93;3.90;;;;;;;5.78;67.50;102207.09;5045848;28;20025;-69
2022/02/10 17:34:27;;;;;;;2.80;1.92;;;;;;;5.74;67.40;102220.13;5045449;28;20048;-69
2022/02/10 17:44:39;;;;;;;8.57;2.05;;;;;;;5.60;66.35;102222.63;5045208;28;20343;-70
2022/02/10 17:52:20;;;;;;;8.00;2.13;;;;;;;5.62;65.96;102228.75;5043398;28;20130;-69
2022/02/10 17:54:45;;;;;;;4.22;1.60;;;;;;;5.62;66.02;102223.50;5044572;28;20032;-68
2022/02/10 17:57:12;;;;;;;10.70;1.95;;;;;;;5.67;65.46;102235.78;5045249;28;20060;-69
2022/02/10 17:59:37;;;;;;;7.20;1.63;;;;;;;5.68;65.68;102236.66;5045056;28;20024;-69
2022/02/10 18:02:03;;;;;;;10.27;2.10;;;;;;;5.72;65.50;102243.66;5044355;28;20533;-68
2022/02/10 18:04:29;;;;;;;13.75;2.45;;;;;;;5.64;65.52;102230.53;5044896;28;20028;-69
2022/02/10 18:06:57;;;;;;;5.88;2.05;;;;;;;5.69;65.58;102236.66;5043868;28;20550;-69
2022/02/10 18:14:30;;;;;;;12.82;2.25;;;;;;;5.56;66.38;102225.22;5044723;28;20443;-69
2022/02/10 18:17:11;;;;;;;7.20;1.90;;;;;;;5.63;66.17;102222.66;5043341;28;20079;-67
2022/02/10 18:19:59;;;;;;;9.90;1.77;;;;;;;5.58;66.34;102214.78;5044696;28;20123;-66
2022/02/10 18:23:11;;;;;;;11.52;2.22;;;;;;;5.58;66.49;102220.00;5043800;28;20391;-68
2022/02/10 18:30:38;;;;;;;12.25;2.90;;;;;;;5.71;66.42;102236.69;5045208;28;20641;-68
2022/02/10 19:10:47;;;;;;;6.60;2.03;;;;;;;5.63;69.31;102238.38;5044254;28;20033;-68
2022/02/10 19:13:19;;;;;;;10.32;1.98;;;;;;;5.59;69.31;102250.50;5044446;28;20087;-68
2022/02/10 19:15:44;;;;;;;10.18;2.13;;;;;;;5.53;69.99;102247.84;5042773;28;20029;-66
2022/02/10 19:18:10;;;;;;;8.05;2.72;;;;;;;5.56;70.13;102248.75;5043413;28;20056;-69
2022/02/10 19:20:37;;;;;;;7.25;1.60;;;;;;;5.56;70.36;102242.63;5042548;28;20381;-70
2022/02/10 19:23:04;;;;;;;12.40;1.85;;;;;;;5.54;70.32;102234.78;5040657;28;20017;-69
2022/02/10 19:25:31;;;;;;;8.15;2.05;;;;;;;5.55;70.45;102241.78;5045825;28;20104;-68
2022/02/10 19:27:56;;;;;;;10.20;2.03;;;;;;;5.52;70.69;102236.53;5047849;28;20028;-70
2022/02/10 19:30:23;;;;;;;13.43;2.58;;;;;;;5.49;70.90;102239.09;5048241;28;20021;-69
2022/02/10 19:32:54;;;;;;;9.93;1.90;;;;;;;5.51;70.86;102237.34;5047041;28;20104;-69
2022/02/10 19:35:22;;;;;;;8.77;2.30;;;;;;;5.53;71.12;102235.66;5047288;28;20025;-69
2022/02/10 19:37:54;;;;;;;12.47;2.40;;;;;;;5.50;71.21;102242.56;5047346;28;20045;-70
2022/02/10 19:40:19;;;;;;;7.47;1.50;;;;;;;5.49;71.19;102246.06;5047467;28;20025;-69
2022/02/10 19:42:47;;;;;;;12.73;1.98;;;;;;;5.40;71.57;102252.06;5047627;28;20471;-68
2022/02/10 19:45:13;;;;;;;9.18;1.70;;;;;;;5.41;71.75;102249.47;5048552;28;20110;-68
2022/02/10 19:47:38;;;;;;;9.85;1.90;;;;;;;5.40;71.83;102252.06;5045928;28;20024;-69
2022/02/10 19:50:11;;;;;;;15.77;1.85;;;;;;;5.34;71.86;102245.03;5046386;28;20032;-69
2022/02/10 19:52:39;;;;;;;10.35;1.90;;;;;;;5.34;71.94;102246.78;5047578;28;20025;-69
2022/02/10 19:55:06;;;;;;;9.48;2.13;;;;;;;5.32;72.24;102246.75;5046784;28;20331;-70
2022/02/10 19:57:36;;;;;;;10.38;2.22;;;;;;;5.31;72.26;102243.28;5047417;28;20025;-70
2022/02/10 20:00:04;;;;;;;;;;;;;;;5.34;71.98;102249.38;5047882;28;20063;-68
2022/02/10 20:02:29;;;;;;;8.32;1.77;;;;;;;5.35;71.97;102245.91;5046711;28;19986;-70
2022/02/10 20:04:56;;;;;;;12.85;2.22;;;;;;;5.38;71.84;102243.31;5045111;28;20480;-69
2022/02/10 20:07:21;;;;;;;10.30;2.17;;;;;;;5.38;71.82;102243.31;5031830;28;20021;-68
2022/02/10 20:09:47;;;;;;;12.05;2.33;;;;;;;5.37;71.62;102244.19;5027332;28;20035;-69
2022/02/10 20:12:12;;;;;;;7.47;1.88;;;;;;;5.29;72.09;102239.75;5028393;28;20024;-69
2022/02/10 20:14:38;;;;;;;9.93;2.15;;;;;;;5.27;72.14;102241.47;5028040;28;20025;-70
2022/02/10 20:17:04;;;;;;;6.88;2.45;;;;;;;5.30;71.69;102251.97;5027242;28;20049;-70
2022/02/10 20:19:29;;;;;;;7.22;2.10;;;;;;;5.34;71.31;102249.38;5027983;28;20258;-68
2022/02/10 20:21:55;;;;;;;6.40;1.75;;;;;;;5.40;70.82;102250.34;5026932;28;20049;-68
2022/02/10 20:24:22;;;;;;;5.50;1.70;;;;;;;5.51;70.67;102258.28;5027437;28;20097;-68
2022/02/10 20:26:47;;;;;;;8.75;2.40;;;;;;;5.56;70.37;102255.72;5027774;28;20025;-69
2022/02/10 20:29:13;;;;;;;12.93;2.80;;;;;;;5.61;70.02;102253.16;5028023;28;20107;-68
2022/02/10 20:31:39;;;;;;;16.35;3.55;;;;;;;5.69;69.81;102251.50;5026913;28;20053;-69
2022/02/10 20:34:10;;;;;;;15.57;3.42;;;;;;;5.67;69.54;102240.13;5027240;28;20484;-68
2022/02/10 20:36:37;;;;;;;13.00;2.97;;;;;;;5.63;69.67;102248.81;5026307;28;20030;-68
2022/02/10 20:39:06;;;;;;;9.65;3.17;;;;;;;5.51;69.51;102250.44;5026570;28;20049;-68
2022/02/10 20:41:34;;;;;;;12.10;2.67;;;;;;;5.51;68.32;102258.28;5040295;28;20036;-67
2022/02/10 20:44:01;;;;;;;15.57;2.42;;;;;;;5.46;68.38;102257.38;5027403;28;20029;-68
2022/02/10 20:46:29;;;;;;;11.32;2.75;;;;;;;5.45;68.53;102250.41;5025412;28;20029;-68
2022/02/10 20:48:55;;;;;;;10.05;2.13;;;;;;;5.41;68.63;102248.59;5026791;28;20053;-68
2022/02/10 20:51:21;;;;;;;10.32;2.53;;;;;;;5.37;68.20;102252.03;5026498;28;20027;-69
2022/02/10 20:53:47;;;;;;;12.65;2.30;;;;;;;5.34;68.06;102252.88;5026539;28;20037;-68
2022/02/10 20:56:14;;;;;;;10.63;2.35;;;;;;;5.30;67.48;102258.94;5027455;28;20029;-67
2022/02/10 20:58:41;;;;;;;10.02;1.92;;;;;;;5.31;67.54;102260.69;5027492;28;20039;-67
2022/02/10 21:01:11;;;;;;;14.32;2.80;;;;;;;5.30;67.28;102257.19;5026769;28;20377;-68
2022/02/10 21:03:37;;;;;;;;;;;;;;;5.26;66.93;102244.06;5027604;28;20479;-67
2022/02/10 21:06:14;;;;;;;8.35;3.20;;;;;;;5.18;67.32;102247.47;5026823;28;19920;-68
2022/02/10 21:11:05;;;;;;;7.50;1.77;;;;;;;5.08;67.67;102243.00;5044622;28;20043;-68
2022/02/10 21:13:32;;;;;;;12.63;2.83;;;;;;;5.04;67.49;102247.34;5046477;28;20029;-69
2022/02/10 21:15:58;;;;;;;9.77;1.73;;;;;;;5.13;67.21;102253.50;5024925;28;20065;-69
2022/02/10 21:18:24;;;;;;;5.43;1.60;;;;;;;5.12;66.51;102251.78;5026697;28;20131;-69
2022/02/10 21:20:56;;;;;;;8.18;1.85;;;;;;;5.08;66.25;102244.75;5026719;28;20083;-68
2022/02/10 21:23:26;;;;;;;7.47;1.90;;;;;;;5.04;66.46;102247.34;5039008;28;20053;-67
2022/02/10 21:25:54;;;;;;;9.48;2.28;;;;;;;4.97;66.61;102235.03;5045373;28;20029;-68
2022/02/10 21:28:26;;;;;;;8.43;1.85;;;;;;;4.91;66.12;102240.19;5045578;28;20025;-69
2022/02/10 21:30:54;;;;;;;10.00;1.77;;;;;;;4.91;66.25;102243.66;5044914;28;20025;-69
2022/02/10 21:38:43;;;;;;;11.05;2.00;;;;;;;4.86;66.26;102239.25;5045233;28;20052;-70
2022/02/10 22:00:49;;;;;;;13.30;1.75;;;;;;;4.65;67.20;102232.91;5044910;28;20131;-68
2022/02/10 22:18:46;;;;;;;8.52;1.60;;;;;;;4.64;67.28;102228.53;5044207;28;20048;-68
2022/02/10 22:21:17;;;;;;;17.83;2.05;;;;;;;4.67;67.26;102236.41;5045118;28;20174;-69
2022/02/10 22:23:46;;;;;;;8.50;2.03;;;;;;;4.62;67.25;102240.69;5043448;28;20083;-67
2022/02/10 22:26:18;;;;;;;8.02;1.90;;;;;;;4.66;67.35;102245.97;5042084;28;20021;-69
2022/02/10 22:36:23;;;;;;;9.30;1.65;;;;;;;4.80;66.58;102251.41;5023974;28;20040;-69
2022/02/10 22:38:52;;;;;;;9.75;1.80;;;;;;;4.89;66.31;102241.91;5024991;28;20041;-68
2022/02/10 22:41:18;;;;;;;12.45;1.95;;;;;;;4.88;66.64;102248.00;5025339;28;20025;-67
2022/02/10 22:43:46;;;;;;;6.65;1.95;;;;;;;4.84;66.61;102238.38;5023393;28;20034;-67
2022/02/10 22:46:12;;;;;;;9.23;1.90;;;;;;;4.92;65.81;102248.06;5026007;28;20084;-68
2022/02/10 22:48:38;;;;;;;9.45;1.88;;;;;;;5.00;65.79;102258.59;5024075;28;20026;-69
2022/02/10 22:51:03;;;;;;;7.05;1.77;;;;;;;4.99;65.47;102241.16;5023681;28;20075;-68
2022/02/10 22:53:29;;;;;;;9.35;1.60;;;;;;;5.06;65.50;102248.22;5025361;28;20514;-68
2022/02/10 22:55:54;;;;;;;7.95;1.65;;;;;;;5.07;65.08;102254.31;5027848;28;20117;-69
2022/02/10 22:58:20;;;;;;;13.10;2.00;;;;;;;5.13;64.82;102251.78;5023418;28;20026;-69
2022/02/10 23:00:48;;;;;;;17.42;2.65;;;;;;;5.23;64.45;102257.09;5028942;28;20039;-68
2022/02/10 23:03:14;;;;;;;10.40;2.37;;;;;;;5.15;64.69;102255.28;5033868;28;20033;-68
2022/02/10 23:05:40;;;;;;;15.38;2.03;;;;;;;5.20;64.25;102250.09;5029029;28;20335;-67
2022/02/10 23:08:05;;;;;;;6.38;1.85;;;;;;;5.19;64.09;102250.97;5029289;28;20423;-68
2022/02/10 23:13:31;;;;;;;12.77;1.92;;;;;;;5.26;64.12;102267.59;5028094;28;20081;-68
2022/02/10 23:15:58;;;;;;;8.43;1.92;;;;;;;5.23;64.16;102288.47;5028769;28;20555;-69
2022/02/10 23:18:28;;;;;;;14.20;2.17;;;;;;;5.24;63.75;102271.94;5027909;28;20021;-68
2022/02/10 23:20:55;;;;;;;14.88;1.75;;;;;;;5.28;63.75;102273.72;5033176;28;20025;-69
2022/02/10 23:23:22;;;;;;;9.93;1.88;;;;;;;5.36;63.41;102264.22;5048795;28;20152;-68
2022/02/10 23:25:51;;;;;;;18.42;3.08;;;;;;;5.37;63.76;102268.59;5047881;28;20049;-68
2022/02/10 23:28:19;;;;;;;10.18;2.15;;;;;;;5.40;64.08;102259.91;5047707;28;20497;-69
2022/02/10 23:30:46;;;;;;;11.32;2.42;;;;;;;5.34;64.43;102254.63;5048418;28;20024;-68
2022/02/10 23:33:19;;;;;;;15.30;2.72;;;;;;;5.31;64.21;102251.13;5038107;28;20132;-68
2022/02/10 23:38:34;;;;;;;19.40;2.20;;;;;;;5.41;64.00;102253.81;5027419;28;20084;-69
2022/02/10 23:41:43;;;;;;;14.07;1.70;;;;;;;5.36;64.39;102247.69;5028321;28;20108;-69
2022/02/10 23:43:51;;;;;;;6.70;1.83;;;;;;;5.45;64.55;102260.84;5028158;28;20447;-69
2022/02/10 23:46:18;;;;;;;15.35;1.95;;;;;;;5.46;65.19;102256.47;5045659;28;20029;-67
2022/02/10 23:48:44;;;;;;;11.45;2.47;;;;;;;5.31;65.63;102266.81;5048015;28;20448;-68
2022/02/10 23:51:09;;;;;;;10.35;2.08;;;;;;;5.56;64.93;102282.75;5047152;28;20045;-68
2022/02/10 23:53:35;;;;;;;15.35;2.63;;;;;;;5.62;64.77;102278.44;5048052;28;20440;-68
2022/02/10 23:56:03;;;;;;;18.60;2.00;;;;;;;5.77;64.40;102272.47;5047122;28;20021;-66
